Radium Springs, New Mexico
Current Conditions -  °F | °C
As of 11:15 AM on Thursday 27 Nov 2014 (Local Time) from KLRU Reporting Station
Clear Clear  
Wind Chill: 59°   Ceiling: Unl
Heat Index: 59°   Visibility: 10mi
Dew Point: 23°   Wind: 0mph
Humidity: 25%   Direction: NA
Pressure: 30.42"   Gusts: NA
Location:  32.5°N, 106.93°W
Report Text: KLRU 271815Z AUTO 00000KT 10SM CLR 15/M05 A3042 RMK AO2 T01481050 PWINO
Loading
Personal Weather Stations






























Interactive Weather Map New forecast layout! Learn more

10-Day Weather Forecast

Advertisements
Track Severe Weather on mobile